North Leechburg, Pennsylvania
Current Conditions -  °F | °C
As of 5:55 PM on Thursday 23 Oct 2014 (Local Time) from KBTP Reporting Station
Clear Clear  
Wind Chill: 55°   Ceiling: Unl
Heat Index: 55°   Visibility: 10mi
Dew Point: 39°   Wind: 7mph
Humidity: 54%   Direction: 310°NW
Pressure: 30.08"   Gusts: 16mph
Location:  40.669°N, 79.6041°W
Report Text: KBTP 232155Z AUTO 31006G14KT 10SM CLR 13/04 A3008 RMK AO1
Loading
Personal Weather Stations






























Interactive Weather Map
Tropical Storm Tracking
New forecast layout! Learn more

10-Day Weather Forecast

Advertisements
Track Severe Weather on mobile